createdAt,value
2018-01-17T00:00:47.833Z,94.12
2018-01-17T00:03:16.046Z,94.22
2018-01-17T00:05:43.624Z,94.51
2018-01-17T00:08:11.350Z,94.71
2018-01-17T00:10:38.955Z,95.00
2018-01-17T00:13:06.681Z,95.08
2018-01-17T00:15:34.377Z,94.95
2018-01-17T00:18:02.211Z,94.93
2018-01-17T00:20:29.746Z,95.18
2018-01-17T00:22:57.295Z,95.40
2018-01-17T00:25:25.842Z,95.31
2018-01-17T00:27:53.405Z,95.08
2018-01-17T00:30:20.959Z,95.00
2018-01-17T00:32:48.565Z,94.56
2018-01-17T00:35:16.132Z,94.38
2018-01-17T00:37:43.667Z,94.08
2018-01-17T00:40:11.256Z,92.88
2018-01-17T00:42:38.801Z,93.28
2018-01-17T00:45:06.658Z,92.79
2018-01-17T00:47:34.275Z,93.21
2018-01-17T00:50:01.823Z,93.04
2018-01-17T00:52:29.421Z,91.66
2018-01-17T00:54:56.997Z,92.36
2018-01-17T00:57:25.072Z,92.00
2018-01-17T00:59:52.615Z,91.35
2018-01-17T01:02:20.230Z,91.42
2018-01-17T01:04:48.031Z,91.63
2018-01-17T01:07:15.609Z,92.28
2018-01-17T01:09:43.152Z,92.51
2018-01-17T01:12:10.989Z,92.94
2018-01-17T01:14:38.539Z,93.10
2018-01-17T01:17:06.224Z,93.03
2018-01-17T01:19:33.809Z,93.38
2018-01-17T01:22:01.361Z,93.49
2018-01-17T01:24:28.954Z,93.21
2018-01-17T01:26:56.516Z,94.01
2018-01-17T01:29:24.556Z,93.91
2018-01-17T01:31:52.149Z,93.79
2018-01-17T01:36:53.590Z,93.52
2018-01-17T01:39:21.690Z,93.55
2018-01-17T01:41:49.255Z,93.82
2018-01-17T01:44:16.799Z,93.47
2018-01-17T01:46:47.157Z,93.03
2018-01-17T01:49:14.716Z,93.26
2018-01-17T01:51:42.270Z,93.31
2018-01-17T01:54:09.936Z,93.25
2018-01-17T01:56:37.598Z,93.33
2018-01-17T01:59:05.149Z,93.63
2018-01-17T02:01:32.783Z,93.61
2018-01-17T02:04:00.547Z,93.65
2018-01-17T02:06:28.191Z,93.80
2018-01-17T02:08:55.776Z,93.98
2018-01-17T02:11:23.355Z,93.84
2018-01-17T02:13:51.833Z,93.77
2018-01-17T02:16:19.616Z,94.08
2018-01-17T02:18:47.202Z,94.22
2018-01-17T02:21:14.748Z,94.07
2018-01-17T02:23:42.481Z,93.95
2018-01-17T02:26:10.246Z,94.11
2018-01-17T02:28:37.820Z,94.22
2018-01-17T02:33:58.890Z,94.70
2018-01-17T02:36:26.439Z,94.90
2018-01-17T02:38:54.000Z,95.04
2018-01-17T02:41:21.666Z,95.09
2018-01-17T02:43:49.353Z,95.15
2018-01-17T02:46:16.856Z,95.17
2018-01-17T02:48:44.423Z,94.79
2018-01-17T02:51:12.570Z,94.67
2018-01-17T02:53:40.124Z,93.78
2018-01-17T02:56:07.772Z,93.40
2018-01-17T02:58:35.748Z,93.06
2018-01-17T03:01:05.305Z,93.40
2018-01-17T03:03:32.927Z,93.61
2018-01-17T03:06:00.516Z,93.64
2018-01-17T03:08:28.081Z,93.68
2018-01-17T03:10:56.599Z,93.77
2018-01-17T03:13:25.541Z,93.93
2018-01-17T03:15:53.263Z,93.33
2018-01-17T03:18:20.878Z,93.16
2018-01-17T03:20:48.510Z,93.60
2018-01-17T03:23:16.093Z,93.17
2018-01-17T03:25:43.668Z,93.19
2018-01-17T03:28:11.217Z,93.01
2018-01-17T03:30:40.170Z,93.32
2018-01-17T03:33:09.319Z,93.60
2018-01-17T03:35:37.270Z,93.75
2018-01-17T03:38:06.408Z,93.70
2018-01-17T03:40:34.247Z,92.06
2018-01-17T03:43:04.338Z,92.24
2018-01-17T03:45:31.932Z,92.21
2018-01-17T03:47:59.583Z,92.23
2018-01-17T03:50:27.302Z,92.22
2018-01-17T03:52:54.923Z,92.64
2018-01-17T03:55:22.522Z,92.78
2018-01-17T03:57:50.096Z,93.14
2018-01-17T04:00:17.624Z,93.49
2018-01-17T04:02:45.227Z,93.86
2018-01-17T04:05:12.937Z,93.80
2018-01-17T04:07:40.505Z,93.90
2018-01-17T04:10:08.062Z,94.20
2018-01-17T04:12:35.608Z,94.12
2018-01-17T04:15:03.191Z,93.85
2018-01-17T04:17:30.906Z,93.83
2018-01-17T04:19:58.467Z,94.21
2018-01-17T04:22:26.093Z,94.39
2018-01-17T04:24:53.686Z,94.43
2018-01-17T04:27:21.249Z,94.63
2018-01-17T04:29:48.798Z,95.00
2018-01-17T04:32:16.384Z,95.07
2018-01-17T04:34:43.932Z,95.24
2018-01-17T04:37:12.182Z,95.19
2018-01-17T04:39:39.752Z,94.98
2018-01-17T04:42:07.297Z,94.87
2018-01-17T04:44:34.878Z,95.09
2018-01-17T04:49:34.142Z,94.90
2018-01-17T04:52:01.709Z,94.75
2018-01-17T04:54:29.300Z,94.79
2018-01-17T04:56:56.857Z,94.20
2018-01-17T04:59:24.428Z,94.14
2018-01-17T05:01:52.245Z,94.25
2018-01-17T05:04:20.359Z,94.60
2018-01-17T05:06:47.909Z,94.67
2018-01-17T05:09:15.830Z,94.91
2018-01-17T05:11:43.393Z,95.04
2018-01-17T05:14:11.008Z,95.14
2018-01-17T05:16:38.584Z,95.15
2018-01-17T05:19:06.437Z,95.52
2018-01-17T05:21:34.022Z,95.86
2018-01-17T05:24:01.617Z,95.68
2018-01-17T05:26:29.160Z,94.62
2018-01-17T05:28:56.709Z,94.82
2018-01-17T05:31:24.395Z,95.12
2018-01-17T05:33:52.055Z,95.21
2018-01-17T05:36:19.597Z,95.49
2018-01-17T05:38:47.182Z,95.64
2018-01-17T05:41:14.752Z,95.91
2018-01-17T05:43:42.336Z,96.17
2018-01-17T05:46:09.921Z,96.11
2018-01-17T05:48:37.466Z,95.84
2018-01-17T05:51:05.060Z,95.40
2018-01-17T05:53:32.621Z,95.34
2018-01-17T05:56:00.154Z,95.09
2018-01-17T05:58:27.688Z,95.41
2018-01-17T06:00:55.309Z,95.51
2018-01-17T06:03:22.954Z,95.97
2018-01-17T06:05:50.601Z,96.09
2018-01-17T06:08:18.190Z,96.39
2018-01-17T06:10:45.759Z,96.54
2018-01-17T06:13:13.347Z,96.46
2018-01-17T06:15:40.903Z,96.31
2018-01-17T06:18:08.519Z,96.38
2018-01-17T06:20:36.136Z,96.60
2018-01-17T06:23:03.779Z,96.55
2018-01-17T06:25:31.554Z,96.61
2018-01-17T06:27:59.203Z,96.57
2018-01-17T06:30:26.817Z,96.45
2018-01-17T06:32:54.376Z,96.37
2018-01-17T06:35:21.912Z,96.36
2018-01-17T06:37:49.485Z,96.37
2018-01-17T06:40:17.028Z,96.52
2018-01-17T06:42:44.584Z,96.43
2018-01-17T06:45:12.188Z,96.43
2018-01-17T06:47:39.773Z,96.52
2018-01-17T06:50:07.331Z,96.50
2018-01-17T06:52:34.931Z,96.33
2018-01-17T06:55:02.479Z,96.35
2018-01-17T06:57:30.916Z,96.47
2018-01-17T06:59:58.500Z,96.43
2018-01-17T07:02:26.058Z,96.35
2018-01-17T07:04:54.005Z,96.29
2018-01-17T07:07:21.621Z,96.24
2018-01-17T07:09:49.343Z,96.06
2018-01-17T07:12:19.583Z,95.93
2018-01-17T07:14:47.516Z,95.98
2018-01-17T07:17:17.184Z,96.12
2018-01-17T07:19:44.724Z,96.03
2018-01-17T07:22:12.399Z,96.10
2018-01-17T07:24:39.966Z,95.73
2018-01-17T07:27:07.730Z,95.96
2018-01-17T07:29:35.377Z,95.64
2018-01-17T07:32:04.194Z,95.86
2018-01-17T07:34:31.873Z,95.36
2018-01-17T07:37:00.051Z,95.39
2018-01-17T07:39:27.672Z,94.91
2018-01-17T07:41:55.217Z,94.98
2018-01-17T07:44:22.794Z,94.80
2018-01-17T07:46:50.333Z,94.87
2018-01-17T07:49:17.914Z,95.01
2018-01-17T07:51:47.463Z,95.19
2018-01-17T07:54:15.061Z,95.25
2018-01-17T07:56:42.966Z,95.31
2018-01-17T07:59:10.572Z,95.59
2018-01-17T08:01:38.143Z,95.33
2018-01-17T08:04:05.701Z,94.87
2018-01-17T08:06:33.271Z,94.45
2018-01-17T08:09:00.841Z,94.39
2018-01-17T08:11:28.380Z,93.38
2018-01-17T08:13:55.965Z,92.97
2018-01-17T08:16:23.907Z,93.05
2018-01-17T08:18:51.467Z,92.83
2018-01-17T08:21:19.114Z,92.35
2018-01-17T08:23:46.668Z,93.01
2018-01-17T08:26:14.242Z,93.62
2018-01-17T08:28:41.920Z,93.28
2018-01-17T08:31:10.809Z,93.05
2018-01-17T08:33:38.473Z,92.95
2018-01-17T08:36:06.186Z,93.20
2018-01-17T08:38:33.750Z,93.36
2018-01-17T08:41:01.347Z,93.43
2018-01-17T08:43:28.919Z,93.53
2018-01-17T08:45:56.472Z,94.01
2018-01-17T08:48:24.511Z,93.93
2018-01-17T08:50:52.095Z,93.96
2018-01-17T08:53:19.640Z,94.15
2018-01-17T08:55:47.215Z,94.40
2018-01-17T08:58:15.239Z,94.54
2018-01-17T09:00:42.784Z,94.36
2018-01-17T09:03:11.580Z,94.83
2018-01-17T09:05:39.592Z,95.45
2018-01-17T09:08:07.345Z,95.96
2018-01-17T09:10:34.902Z,96.17
2018-01-17T09:13:02.500Z,96.10
2018-01-17T09:15:30.091Z,96.12
2018-01-17T09:17:57.635Z,95.85
2018-01-17T09:20:25.229Z,95.83
2018-01-17T09:22:52.797Z,94.73
2018-01-17T09:25:20.530Z,93.73
2018-01-17T09:27:48.142Z,93.08
2018-01-17T09:30:16.064Z,93.37
2018-01-17T09:32:43.610Z,93.87
2018-01-17T09:35:12.206Z,94.52
2018-01-17T09:37:39.775Z,94.95
2018-01-17T09:40:07.349Z,95.44
2018-01-17T09:42:34.923Z,95.70
2018-01-17T09:45:02.563Z,95.97
2018-01-17T09:47:30.116Z,96.13
2018-01-17T09:49:57.750Z,95.87
2018-01-17T09:52:25.892Z,95.70
2018-01-17T09:54:53.448Z,95.64
2018-01-17T09:57:21.050Z,95.52
2018-01-17T09:59:48.589Z,95.57
2018-01-17T10:02:16.276Z,95.62
2018-01-17T10:04:43.884Z,95.67
2018-01-17T10:07:12.122Z,95.57
2018-01-17T10:09:39.681Z,95.22
2018-01-17T10:12:07.250Z,95.47
2018-01-17T10:14:34.812Z,95.12
2018-01-17T10:17:02.350Z,94.80
2018-01-17T10:19:29.926Z,94.80
2018-01-17T10:21:57.517Z,94.37
2018-01-17T10:24:25.893Z,93.98
2018-01-17T10:26:53.458Z,92.54
2018-01-17T10:29:21.014Z,92.36
2018-01-17T10:31:48.611Z,93.09
2018-01-17T10:34:16.252Z,91.89
2018-01-17T10:36:43.792Z,92.25
2018-01-17T10:39:11.482Z,92.21
2018-01-17T10:41:39.034Z,91.58
2018-01-17T10:44:06.587Z,91.04
2018-01-17T10:46:34.166Z,90.01
2018-01-17T10:49:01.714Z,91.12
2018-01-17T10:51:29.263Z,89.40
2018-01-17T10:53:56.866Z,88.74
2018-01-17T10:56:24.446Z,90.97
2018-01-17T10:58:51.988Z,90.05
2018-01-17T11:01:19.590Z,89.31
2018-01-17T11:03:47.570Z,88.83
2018-01-17T11:06:15.170Z,88.26
2018-01-17T11:08:42.790Z,88.39
2018-01-17T11:11:10.662Z,88.75
2018-01-17T11:13:38.336Z,89.68
2018-01-17T11:16:06.469Z,88.39
2018-01-17T11:18:35.459Z,87.01
2018-01-17T11:21:03.205Z,86.67
2018-01-17T11:23:30.758Z,88.36
2018-01-17T11:25:59.119Z,87.93
2018-01-17T11:28:26.882Z,88.88
2018-01-17T11:30:54.490Z,88.47
2018-01-17T11:33:22.049Z,88.31
2018-01-17T11:35:49.593Z,87.46
2018-01-17T11:38:17.133Z,87.31
2018-01-17T11:40:44.735Z,89.82
2018-01-17T11:43:12.774Z,90.65
2018-01-17T11:45:40.417Z,90.11
2018-01-17T11:48:11.869Z,88.62
2018-01-17T11:50:40.196Z,88.69
2018-01-17T11:53:08.075Z,86.48
2018-01-17T11:58:19.368Z,84.67
2018-01-17T12:00:47.013Z,84.44
2018-01-17T12:03:14.573Z,84.01
2018-01-17T12:08:13.920Z,83.90
2018-01-17T12:10:41.534Z,83.05
2018-01-17T12:13:09.987Z,82.97
2018-01-17T12:15:39.413Z,83.00
2018-01-17T12:18:11.996Z,82.08
2018-01-17T12:20:39.630Z,82.23
2018-01-17T12:23:07.242Z,82.22
2018-01-17T12:25:35.372Z,83.05
2018-01-17T12:28:02.983Z,82.72
2018-01-17T12:30:32.584Z,81.46
2018-01-17T12:33:00.297Z,82.54
2018-01-17T12:35:27.927Z,82.90
2018-01-17T12:37:55.510Z,83.29
2018-01-17T12:40:23.250Z,83.61
2018-01-17T12:42:50.888Z,80.36
2018-01-17T12:45:19.385Z,79.87
2018-01-17T12:47:47.056Z,79.09
2018-01-17T12:50:14.658Z,79.79
2018-01-17T12:52:42.222Z,79.08
2018-01-17T12:55:11.150Z,77.80
2018-01-17T12:57:38.710Z,78.67
2018-01-17T13:00:06.482Z,78.58
2018-01-17T13:02:34.080Z,77.94
2018-01-17T13:05:01.695Z,80.01
2018-01-17T13:07:30.355Z,81.53
2018-01-17T13:09:57.950Z,81.51
2018-01-17T13:12:25.504Z,82.98
2018-01-17T13:17:43.939Z,88.83
2018-01-17T13:20:11.756Z,90.16
2018-01-17T13:22:39.308Z,91.07
2018-01-17T13:25:07.033Z,92.58
2018-01-17T13:27:34.619Z,92.76
2018-01-17T13:30:02.163Z,91.21
2018-01-17T13:32:29.738Z,88.38
2018-01-17T13:34:57.368Z,89.07
2018-01-17T13:37:25.021Z,87.36
2018-01-17T13:39:52.614Z,87.16
2018-01-17T13:42:20.259Z,87.18
2018-01-17T13:44:47.856Z,84.67
2018-01-17T13:47:15.705Z,83.59
2018-01-17T13:49:43.241Z,83.27
2018-01-17T13:52:10.856Z,82.15
2018-01-17T13:54:38.465Z,80.90
2018-01-17T13:57:06.339Z,76.74
2018-01-17T13:59:34.037Z,79.18
2018-01-17T14:02:01.640Z,76.46
2018-01-17T14:04:29.205Z,76.66
2018-01-17T14:06:56.861Z,78.35
2018-01-17T14:09:24.634Z,79.11
2018-01-17T14:11:52.189Z,78.61
2018-01-17T14:14:19.834Z,80.49
2018-01-17T14:16:47.392Z,77.99
2018-01-17T14:19:15.020Z,78.91
2018-01-17T14:21:42.764Z,79.29
2018-01-17T14:24:10.396Z,79.21
2018-01-17T14:26:37.960Z,78.45
2018-01-17T14:29:05.662Z,78.58
2018-01-17T14:31:33.193Z,79.39
2018-01-17T14:34:00.769Z,79.42
2018-01-17T14:36:28.315Z,78.79
2018-01-17T14:38:55.900Z,78.85
2018-01-17T14:41:23.514Z,79.54
2018-01-17T14:43:51.097Z,79.90
2018-01-17T14:46:18.648Z,80.23
2018-01-17T14:48:46.317Z,79.69
2018-01-17T14:51:13.871Z,80.19
2018-01-17T14:53:41.417Z,80.99
2018-01-17T14:56:09.070Z,80.19
2018-01-17T14:58:36.641Z,80.33
2018-01-17T15:01:04.212Z,80.92
2018-01-17T15:03:32.038Z,80.55
2018-01-17T15:05:59.657Z,80.19
2018-01-17T15:08:27.212Z,81.17
2018-01-17T15:10:54.808Z,82.21
2018-01-17T15:13:22.712Z,82.71
2018-01-17T15:15:50.289Z,82.40
2018-01-17T15:18:17.902Z,83.10
2018-01-17T15:20:46.012Z,84.01
2018-01-17T15:23:13.773Z,84.08
2018-01-17T15:25:41.394Z,83.65
2018-01-17T15:28:09.037Z,81.50
2018-01-17T15:30:36.633Z,80.06
2018-01-17T15:33:04.252Z,78.83
2018-01-17T15:35:31.865Z,79.44
2018-01-17T15:38:00.521Z,78.71
2018-01-17T15:40:28.136Z,77.32
2018-01-17T15:42:55.727Z,76.35
2018-01-17T15:45:23.553Z,78.10
2018-01-17T15:47:51.117Z,79.01
2018-01-17T15:50:18.679Z,78.86
2018-01-17T15:52:46.312Z,79.19
2018-01-17T15:55:14.880Z,79.44
2018-01-17T15:57:42.631Z,80.52
2018-01-17T16:00:14.216Z,79.61
2018-01-17T16:02:42.052Z,80.32
2018-01-17T16:05:10.020Z,80.19
2018-01-17T16:07:37.970Z,80.64
2018-01-17T16:10:05.552Z,80.34
2018-01-17T16:12:33.104Z,80.93
2018-01-17T16:15:00.709Z,81.63
2018-01-17T16:17:28.454Z,81.64
2018-01-17T16:19:56.042Z,81.46
2018-01-17T16:22:23.841Z,81.67
2018-01-17T16:24:52.563Z,82.20
2018-01-17T16:27:20.163Z,80.61
2018-01-17T16:29:47.817Z,80.14
2018-01-17T16:32:15.394Z,79.04
2018-01-17T16:34:43.052Z,77.85
2018-01-17T16:37:10.978Z,79.07
2018-01-17T16:39:38.703Z,78.18
2018-01-17T16:42:06.276Z,77.35
2018-01-17T16:44:34.318Z,78.44
2018-01-17T16:47:01.919Z,78.82
2018-01-17T16:49:29.486Z,78.58
2018-01-17T16:51:57.105Z,78.96
2018-01-17T16:54:24.707Z,79.62
2018-01-17T16:56:52.284Z,79.42
2018-01-17T16:59:19.886Z,78.54
2018-01-17T17:01:47.830Z,77.28
2018-01-17T17:04:15.825Z,77.38
2018-01-17T17:06:43.419Z,77.76
2018-01-17T17:09:11.479Z,76.28
2018-01-17T17:11:39.059Z,77.26
2018-01-17T17:14:06.654Z,76.46
2018-01-17T17:16:34.269Z,75.92
2018-01-17T17:19:01.859Z,75.06
2018-01-17T17:21:29.416Z,75.81
2018-01-17T17:23:57.106Z,76.19
2018-01-17T17:26:24.676Z,75.37
2018-01-17T17:28:52.248Z,75.59
2018-01-17T17:31:19.868Z,76.19
2018-01-17T17:33:47.439Z,77.29
2018-01-17T17:36:15.198Z,77.74
2018-01-17T17:38:42.817Z,78.60
2018-01-17T17:41:11.527Z,78.07
2018-01-17T17:43:39.101Z,78.62
2018-01-17T17:46:06.695Z,78.23
2018-01-17T17:48:34.303Z,78.36
2018-01-17T17:51:01.918Z,78.45
2018-01-17T17:53:29.545Z,77.57
2018-01-17T17:55:57.346Z,77.48
2018-01-17T17:58:25.090Z,78.07
2018-01-17T18:00:52.679Z,78.57
2018-01-17T18:03:20.265Z,78.54
2018-01-17T18:05:47.823Z,77.94
2018-01-17T18:08:15.360Z,79.35
2018-01-17T18:10:42.990Z,78.95
2018-01-17T18:13:11.015Z,79.54
2018-01-17T18:15:38.705Z,80.34
2018-01-17T18:18:06.413Z,79.97
2018-01-17T18:20:34.640Z,80.72
2018-01-17T18:23:02.768Z,81.01
2018-01-17T18:25:35.249Z,80.27
2018-01-17T18:28:02.862Z,80.94
2018-01-17T18:30:30.839Z,81.05
2018-01-17T18:32:58.443Z,80.99
2018-01-17T18:35:26.040Z,81.33
2018-01-17T18:37:56.522Z,82.48
2018-01-17T18:40:24.152Z,81.88
2018-01-17T18:42:51.701Z,81.82
2018-01-17T18:45:19.276Z,81.59
2018-01-17T18:47:46.900Z,81.14
2018-01-17T18:50:14.450Z,81.18
2018-01-17T18:52:42.020Z,81.31
2018-01-17T18:55:10.099Z,82.69
2018-01-17T18:57:37.745Z,83.88
2018-01-17T19:00:05.533Z,84.75
2018-01-17T19:02:33.192Z,85.55
2018-01-17T19:05:01.149Z,86.58
2018-01-17T19:07:28.704Z,87.04
2018-01-17T19:09:56.318Z,87.57
2018-01-17T19:12:23.942Z,88.15
2018-01-17T19:14:51.513Z,89.14
2018-01-17T19:17:19.152Z,89.49
2018-01-17T19:19:46.710Z,90.31
2018-01-17T19:22:14.257Z,90.67
2018-01-17T19:27:34.274Z,90.90
2018-01-17T19:30:01.881Z,91.01
2018-01-17T19:32:29.462Z,91.09
2018-01-17T19:34:57.026Z,91.25
2018-01-17T19:37:26.108Z,91.22
2018-01-17T19:39:54.811Z,91.30
2018-01-17T19:42:22.398Z,91.27
2018-01-17T19:45:09.035Z,91.00
2018-01-17T19:47:36.648Z,90.98
2018-01-17T19:50:04.207Z,90.78
2018-01-17T19:52:31.795Z,90.19
2018-01-17T19:54:59.358Z,90.16
2018-01-17T19:57:26.905Z,90.05
2018-01-17T19:59:54.500Z,89.86
2018-01-17T20:02:22.292Z,89.55
2018-01-17T20:04:49.871Z,90.01
2018-01-17T20:07:17.463Z,90.67
2018-01-17T20:09:45.025Z,91.57
2018-01-17T20:12:12.699Z,91.83
2018-01-17T20:14:40.260Z,91.99
2018-01-17T20:17:07.944Z,91.92
2018-01-17T20:19:35.581Z,91.95
2018-01-17T20:22:03.189Z,91.86
2018-01-17T20:24:30.764Z,91.91
2018-01-17T20:26:58.433Z,91.17
2018-01-17T20:29:26.181Z,90.38
2018-01-17T20:31:54.001Z,90.29
2018-01-17T20:34:21.566Z,87.82
2018-01-17T20:36:49.126Z,88.08
2018-01-17T20:39:22.333Z,87.49
2018-01-17T20:41:49.973Z,86.79
2018-01-17T20:44:17.542Z,86.50
2018-01-17T20:46:45.136Z,86.33
2018-01-17T20:49:12.826Z,85.82
2018-01-17T20:51:40.407Z,85.84
2018-01-17T20:54:08.304Z,85.65
2018-01-17T20:56:35.878Z,85.26
2018-01-17T20:59:03.496Z,85.60
2018-01-17T21:01:31.108Z,85.38
2018-01-17T21:03:58.676Z,84.81
2018-01-17T21:06:26.256Z,85.02
2018-01-17T21:08:54.097Z,84.17
2018-01-17T21:11:22.065Z,84.09
2018-01-17T21:13:49.642Z,84.27
2018-01-17T21:16:17.577Z,83.45
2018-01-17T21:18:45.149Z,83.99
2018-01-17T21:21:12.864Z,83.65
2018-01-17T21:23:40.792Z,82.81
2018-01-17T21:26:08.360Z,83.08
2018-01-17T21:28:36.010Z,83.53
2018-01-17T21:31:03.629Z,83.83
2018-01-17T21:33:31.945Z,84.19
2018-01-17T21:35:59.560Z,84.23
2018-01-17T21:38:27.131Z,84.51
2018-01-17T21:40:54.676Z,84.50
2018-01-17T21:43:28.339Z,85.11
2018-01-17T21:45:55.883Z,85.83
2018-01-17T21:48:23.463Z,86.27
2018-01-17T21:50:51.116Z,86.36
2018-01-17T21:53:22.340Z,87.14
2018-01-17T21:55:49.969Z,87.70
2018-01-17T21:58:17.592Z,88.23
2018-01-17T22:00:45.161Z,88.23
2018-01-17T22:03:14.051Z,87.53
2018-01-17T22:05:41.868Z,87.90
2018-01-17T22:08:09.451Z,88.29
2018-01-17T22:10:37.036Z,88.67
2018-01-17T22:13:04.708Z,88.77
2018-01-17T22:15:32.275Z,88.79
2018-01-17T22:17:59.854Z,89.35
2018-01-17T22:20:27.439Z,90.14
2018-01-17T22:22:54.999Z,90.96
2018-01-17T22:25:23.290Z,91.54
2018-01-17T22:27:50.997Z,91.92
2018-01-17T22:30:18.586Z,92.18
2018-01-17T22:32:46.178Z,92.59
2018-01-17T22:35:13.771Z,92.53
2018-01-17T22:37:41.321Z,92.34
2018-01-17T22:40:09.055Z,92.23
2018-01-17T22:42:36.711Z,92.28
2018-01-17T22:45:04.726Z,91.98
2018-01-17T22:47:32.476Z,91.78
2018-01-17T22:50:00.058Z,90.58
2018-01-17T22:52:27.611Z,89.35
2018-01-17T22:54:55.172Z,87.09
2018-01-17T22:57:22.799Z,85.89
2018-01-17T22:59:50.552Z,86.31
2018-01-17T23:02:21.027Z,86.16
2018-01-17T23:04:48.881Z,84.76
2018-01-17T23:07:16.588Z,85.67
2018-01-17T23:09:44.176Z,84.81
2018-01-17T23:15:01.731Z,83.14
2018-01-17T23:17:29.302Z,83.40
2018-01-17T23:19:56.887Z,83.89
2018-01-17T23:22:24.512Z,82.91
2018-01-17T23:24:52.059Z,82.08
2018-01-17T23:27:20.739Z,82.56
2018-01-17T23:29:48.319Z,80.34
2018-01-17T23:32:15.869Z,80.50
2018-01-17T23:34:43.441Z,80.91
2018-01-17T23:37:12.823Z,81.78
2018-01-17T23:39:40.516Z,81.66
2018-01-17T23:42:08.091Z,80.64
2018-01-17T23:44:35.697Z,81.60
2018-01-17T23:47:04.663Z,81.15
2018-01-17T23:49:33.121Z,82.03
2018-01-17T23:52:00.772Z,82.75
2018-01-17T23:54:28.343Z,82.77
2018-01-17T23:56:58.016Z,81.23
2018-01-17T23:59:25.613Z,81.75
